x

South Hatteras - 225 South Of Cape Hatteras (41002) Wave Buoy

1:50am - Sat 29th Nov 2014 All times are EST. -5 hours from GMT.

  • Sig Wave height 6.2ft
  • Swell Direction
  • Peak Period 8s
  • Average Period 6s
  • Wind
    11mph, 16mph gusts
  • Sea Temp 72°f
  • Air Temp 58°f
  • Sea Pressure 1024.7mb
  • South Hatteras - 225 South Of Cape Hatteras
  • South Hatteras - 225 South Of Cape Hatteras

More Historic Weather Station data

Upgrade to MSW Pro to gain access to the past 30 days of data for over 8000 Wavebouys and Weather Stations around the globe.

Join Pro

Comparision Forecast

View Surf forecast
   
Sat 11/29 1:50am 6ft 8s 6s 11 16 mph 1024.7mb 72f 58f
12:50am 6.5ft 9s 6s 11 18 mph 1024.4mb 72f 58f
Fri 11/28 11:50pm 7ft 8s 6s 16 20 mph 1024.1mb 72f 58f
10:50pm 7.5ft 9s 7s 16 22 mph 1024.4mb 72f 58f
9:50pm 8ft 9s 6s 18 22 mph 1024.5mb 72f 58f
8:50pm 8ft 8s 6s 18 25 mph 1024mb 72f 58f
7:50pm 8ft 7s 6s 18 25 mph 1024mb 72f 59f
6:50pm 8ft 8s 6s 18 25 mph 1023.3mb 72f 59f
5:50pm 8.5ft 9s 6s 20 27 mph 1022.7mb 72f 59f
4:50pm 8.5ft 8s 6s 18 22 mph 1022.4mb 72f 58f
3:50pm 9ft 8s 7s 18 25 mph 1022mb 72f 59f
2:50pm 10ft 8s 7s 20 29 mph 1021.6mb 73f 59f
1:50pm 10ft 8s 7s 20 27 mph 1021.5mb 73f 58f
12:50pm 9.5ft 8s 7s 16 25 mph 1022.1mb 73f 58f
11:50am 9ft 9s 7s 18 25 mph 1022.3mb 73f 58f
10:50am 11ft 9s 7s 25 31 mph 1022.7mb 73f 57f
9:50am 10ft 9s 7s 22 29 mph 1022.8mb 72f 58f
8:50am 10.5ft 9s 7s 22 31 mph 1022.3mb 72f 58f
7:50am 12ft 9s 7s 25 31 mph 1021.3mb 73f 59f
6:50am 10ft 9s 7s 27 34 mph 1020.4mb 73f 58f
5:50am 10.5ft 9s 7s 31 36 mph 1019.6mb 73f 58f
4:50am 12ft 9s 7s 29 36 mph 1019.1mb 73f 58f
3:50am 11ft 9s 7s 29 36 mph 1018.8mb 73f 59f
2:50am 11ft 9s 7s 27 34 mph 1018.8mb 73f 60f
1:50am 11ft 9s 7s 31 38 mph 1018.3mb 73f 59f
12:50am 12ft 9s 7s 29 34 mph 1018.2mb 73f 60f
Thu 11/27 11:50pm 13ft 9s 7s 27 34 mph 1018.4mb 73f 59f
10:50pm 11.5ft 9s 7s 25 31 mph 1018.2mb 73f 62f
9:50pm 11ft 9s 7s 27 34 mph 1018.2mb 73f 63f
8:50pm 13ft 8s 7s 25 31 mph 1018.2mb 73f 63f
7:50pm 12ft 8s 7s 27 34 mph 1018mb 73f 63f
6:50pm 13ft 8s 7s 31 38 mph 1017.3mb 73f 63f
5:50pm 11ft 8s 6s 29 38 mph 1016.6mb 73f 65f
4:50pm 10ft 7s 6s 31 40 mph 1015.6mb 73f 66f
3:50pm 8ft 7s 6s 31 40 mph 1015.1mb 73f 67f
2:50pm 7.5ft 7s 6s 27 34 mph 1014.9mb 73f 70f
1:50pm 8ft 7s 6s 25 29 mph 1015.4mb 73f 69f
12:50pm 7.5ft 8s 6s 25 29 mph 1016.5mb 73f 68f
11:50am 7ft 7s 6s 25 29 mph 1017.4mb 73f 68f
10:50am 7ft 7s 6s 18 25 mph 1018.7mb 73f 68f
9:50am 8ft 8s 7s 18 22 mph 1019.4mb 73f 67f
8:50am 7.5ft 8s 7s 13 18 mph 1020mb 73f 67f
7:50am 8ft 8s 7s 11 16 mph 1020.1mb 73f 66f
6:50am 8.5ft 8s 7s 13 18 mph 1020.4mb 73f 65f
5:50am 9ft 8s 7s 16 20 mph 1020.1mb 73f 65f
4:50am 10ft 8s 7s 20 25 mph 1019.4mb 73f 66f
3:50am 10ft 8s 7s 18 22 mph 1019.2mb 73f 66f
2:50am 10ft 9s 7s 20 25 mph 1018.9mb 73f 66f
1:50am 10ft 8s 7s 18 27 mph 1018.5mb 73f 66f
12:50am 10.5ft 8s 7s 20 25 mph 1018.2mb 73f 66f
Wed 11/26 11:50pm 10.5ft 8s 7s 20 27 mph 1018.9mb 73f 66f
10:50pm 11.5ft 8s 7s 22 25 mph 1018.2mb 73f 67f
8:50pm 12ft 8s 7s 27 34 mph 1017.1mb 73f 68f
7:50pm 10.5ft 8s 6s 27 34 mph 1016.3mb 73f 69f
6:50pm 10ft 8s 6s 27 34 mph 1015.5mb 73f 70f
5:50pm 11ft 8s 7s 27 31 mph 1014.4mb 73f 70f
4:50pm 10ft 8s 6s 25 34 mph 1013.4mb 73f 71f
3:50pm 10ft 8s 6s 27 31 mph 1011.9mb 73f 72f
2:50pm 9.5ft 8s 6s 25 29 mph 1011.6mb 73f 73f
1:50pm 9ft 7s 6s 34 43 mph 1010.7mb 74f 75f
12:50pm 9ft 8s 6s 27 34 mph 1011.2mb 74f 76f
11:50am 8.5ft 7s 6s 27 31 mph 1012.3mb 73f 76f
10:50am 8.5ft 7s 6s 27 31 mph 1013.7mb 73f 76f
9:50am 8.5ft 6s 6s 29 34 mph 1014mb 73f 76f
8:50am 8.5ft 7s 6s 29 34 mph 1014.1mb 73f 75f
7:50am 7.5ft 6s 6s 25 29 mph 1014.5mb 73f 75f
6:50am 7ft 7s 6s 27 34 mph 1014mb 73f 75f
5:50am 7ft 7s 5s 25 29 mph 1014.3mb 73f 75f
4:50am 6ft 7s 5s 22 27 mph 1014.6mb 73f 75f
3:50am 6.5ft 6s 6s 25 29 mph 1014.7mb 73f 75f
2:50am 6.5ft 9s 5s 22 25 mph 1015.5mb 73f 75f
1:50am 6ft 8s 5s 22 27 mph 1016.1mb 73f 75f
12:50am 6ft 9s 6s 18 22 mph 1016.7mb 74f 75f
Tue 11/25 11:50pm 6ft 7s 6s 20 22 mph 1017.5mb 74f 75f
10:50pm 6ft 7s 6s 16 18 mph 1018.3mb 74f 74f
9:50pm 6ft 9s 6s 18 20 mph 1018.4mb 74f 75f
8:50pm 6ft 7s 6s 18 20 mph 1018.3mb 74f 75f
7:50pm 6ft 9s 6s 16 18 mph 1018.8mb 74f 74f
6:50pm 6ft 8s 6s 16 18 mph 1018.7mb 74f 74f
5:50pm 7ft 7s 6s 18 20 mph 1018.4mb 74f 75f
4:50pm 6ft 7s 6s 18 22 mph 1018mb 74f 75f
3:50pm 6.5ft 9s 6s 20 25 mph 1017.6mb 74f 75f
2:50pm 6.5ft 7s 6s 20 22 mph 1017.8mb 74f 75f
1:50pm 6ft 8s 6s 20 25 mph 1017.8mb 74f 75f
12:50pm 6ft 8s 6s 20 25 mph 1018.3mb 74f 75f
11:50am 6ft 9s 6s 18 20 mph 1018.9mb 74f 75f
10:50am 6ft 8s 6s 16 18 mph 1020.1mb 74f 75f
9:50am 6ft 9s 6s 16 18 mph 1020.4mb 73f 75f
8:50am 6ft 8s 6s 16 18 mph 1020.4mb 73f 75f
7:50am 6ft 9s 6s 4 7 mph 1020.5mb 73f 73f